Terminal Aerodrome Forecast
Issued by NWS

Home | Current Version | Previous Version | Text Only | Print | Product List | Glossary On
Versions: 1 2 3 4 5 6 7 8 9 10 11 12 13 14 15 16
000
FTUS45 KABQ 291130
TAFLVS
TAF
KLVS 291130Z 2912/3012 03005KT P6SM BKN100
     FM291800 13010KT P6SM VCSH OVC060
      TEMPO 2920/2924 4SM TSRA OVC030CB
     FM300000 02007KT P6SM VCSH OVC035
     FM300700 05005KT P6SM OVC025=

USA.gov is the U.S. government's official web portal to all federal, state and local government web resources and services.